createdAt,value
2023-03-05T00:04:31.132Z,70.75
2023-03-05T00:09:34.936Z,70.52
2023-03-05T00:14:38.235Z,70.70
2023-03-05T00:19:39.983Z,70.92
2023-03-05T00:24:41.860Z,70.91
2023-03-05T00:29:43.653Z,71.00
2023-03-05T00:34:45.347Z,71.32
2023-03-05T00:39:47.159Z,70.98
2023-03-05T00:44:48.844Z,71.41
2023-03-05T00:49:50.633Z,70.98
2023-03-05T00:54:52.490Z,71.20
2023-03-05T00:59:54.172Z,70.90
2023-03-05T01:04:55.855Z,71.04
2023-03-05T01:09:57.833Z,71.46
2023-03-05T01:14:59.508Z,71.44
2023-03-05T01:20:01.270Z,71.77
2023-03-05T01:25:03.018Z,71.67
2023-03-05T01:30:05.936Z,71.88
2023-03-05T01:35:08.898Z,72.04
2023-03-05T01:40:13.037Z,72.24
2023-03-05T01:45:18.460Z,72.58
2023-03-05T01:50:25.601Z,72.80
2023-03-05T01:55:29.479Z,72.93
2023-03-05T02:00:35.586Z,72.66
2023-03-05T02:05:39.134Z,72.57
2023-03-05T02:10:46.161Z,72.94
2023-03-05T02:15:49.820Z,73.29
2023-03-05T02:20:59.505Z,73.07
2023-03-05T02:26:01.172Z,73.26
2023-03-05T02:31:09.818Z,73.63
2023-03-05T02:36:12.119Z,73.81
2023-03-05T02:41:15.060Z,73.68
2023-03-05T02:46:17.710Z,73.85
2023-03-05T02:51:19.623Z,73.75
2023-03-05T02:56:22.812Z,73.50
2023-03-05T03:01:24.595Z,73.75
2023-03-05T03:06:26.691Z,73.48
2023-03-05T03:11:28.463Z,73.75
2023-03-05T03:16:30.632Z,74.04
2023-03-05T03:21:32.325Z,73.97
2023-03-05T03:26:33.976Z,74.24
2023-03-05T03:31:35.654Z,74.45
2023-03-05T03:36:37.367Z,74.22
2023-03-05T03:41:43.106Z,73.89
2023-03-05T03:46:46.553Z,74.42
2023-03-05T03:51:49.398Z,74.45
2023-03-05T03:56:51.267Z,74.12
2023-03-05T04:01:52.919Z,74.11
2023-03-05T04:06:54.696Z,73.84
2023-03-05T04:11:56.354Z,74.07
2023-03-05T04:16:58.126Z,73.88
2023-03-05T04:21:59.698Z,73.85
2023-03-05T04:27:01.436Z,73.79
2023-03-05T04:32:03.425Z,74.28
2023-03-05T04:37:05.296Z,74.31
2023-03-05T04:42:07.108Z,74.57
2023-03-05T04:47:09.003Z,74.48
2023-03-05T04:52:11.993Z,74.48
2023-03-05T04:57:13.697Z,74.99
2023-03-05T05:02:15.495Z,75.15
2023-03-05T05:07:17.206Z,74.92
2023-03-05T05:12:19.461Z,74.84
2023-03-05T05:17:21.263Z,74.94
2023-03-05T05:22:23.407Z,74.71
2023-03-05T05:27:25.164Z,74.73
2023-03-05T05:32:27.171Z,74.74
2023-03-05T05:37:29.544Z,74.56
2023-03-05T05:42:31.696Z,75.02
2023-03-05T05:47:33.421Z,75.16
2023-03-05T05:52:35.005Z,75.17
2023-03-05T05:57:36.733Z,74.88
2023-03-05T06:02:42.829Z,74.96
2023-03-05T06:07:44.491Z,74.83
2023-03-05T06:12:47.977Z,75.20
2023-03-05T06:17:49.656Z,75.34
2023-03-05T06:22:51.488Z,75.23
2023-03-05T06:27:53.160Z,75.35
2023-03-05T06:32:55.027Z,74.89
2023-03-05T06:37:56.760Z,75.04
2023-03-05T06:42:58.676Z,74.83
2023-03-05T06:48:00.519Z,74.99
2023-03-05T06:53:02.744Z,75.00
2023-03-05T06:58:04.399Z,75.11
2023-03-05T07:03:06.175Z,74.93
2023-03-05T07:08:08.552Z,74.79
2023-03-05T07:13:10.563Z,75.38
2023-03-05T07:18:12.284Z,75.99
2023-03-05T07:23:14.072Z,76.39
2023-03-05T07:28:15.924Z,76.52
2023-03-05T07:33:17.732Z,76.75
2023-03-05T07:38:19.911Z,76.83
2023-03-05T07:43:21.606Z,76.63
2023-03-05T07:48:24.572Z,76.84
2023-03-05T07:53:26.450Z,76.63
2023-03-05T07:58:28.175Z,76.56
2023-03-05T08:03:29.758Z,76.43
2023-03-05T08:08:31.518Z,76.33
2023-03-05T08:13:33.714Z,76.64
2023-03-05T08:18:35.787Z,76.60
2023-03-05T08:23:37.460Z,76.49
2023-03-05T08:28:39.221Z,76.41
2023-03-05T08:33:41.281Z,76.59
2023-03-05T08:38:44.612Z,76.66
2023-03-05T08:43:46.461Z,76.56
2023-03-05T08:48:48.111Z,76.21
2023-03-05T08:53:49.944Z,76.15
2023-03-05T08:58:53.027Z,76.26
2023-03-05T09:03:54.949Z,76.52
2023-03-05T09:08:56.675Z,76.45
2023-03-05T09:13:58.398Z,76.75
2023-03-05T09:19:00.176Z,76.93
2023-03-05T09:24:02.035Z,77.30
2023-03-05T09:29:03.788Z,77.39
2023-03-05T09:34:08.182Z,77.55
2023-03-05T09:39:10.034Z,77.40
2023-03-05T09:44:35.356Z,77.43
2023-03-05T09:50:24.136Z,77.50
2023-03-05T09:55:40.509Z,77.42
2023-03-05T10:00:49.261Z,77.15
2023-03-05T10:05:59.716Z,77.48
2023-03-05T10:11:06.973Z,78.01
2023-03-05T10:16:51.384Z,77.39
2023-03-05T10:22:13.012Z,77.35
2023-03-05T10:27:21.113Z,76.63
2023-03-05T10:32:45.675Z,76.42
2023-03-05T10:37:54.023Z,76.57
2023-03-05T10:43:12.950Z,76.83
2023-03-05T10:48:28.332Z,76.60
2023-03-05T10:53:36.582Z,76.79
2023-03-05T10:58:38.264Z,76.96
2023-03-05T11:04:24.984Z,76.52
2023-03-05T11:09:29.458Z,76.90
2023-03-05T11:14:33.513Z,77.04
2023-03-05T11:19:35.363Z,76.59
2023-03-05T11:24:37.549Z,77.05
2023-03-05T11:29:48.602Z,76.59
2023-03-05T11:34:51.768Z,76.61
2023-03-05T11:40:16.039Z,76.09
2023-03-05T11:45:19.144Z,76.74
2023-03-05T11:50:25.363Z,75.98
2023-03-05T11:55:48.588Z,75.78
2023-03-05T12:00:50.899Z,75.78
2023-03-05T12:06:12.886Z,75.93
2023-03-05T12:11:26.349Z,75.18
2023-03-05T12:16:30.838Z,75.01
2023-03-05T12:21:41.754Z,75.28
2023-03-05T12:26:53.543Z,74.93
2023-03-05T12:31:55.766Z,74.06
2023-03-05T12:36:57.484Z,73.61
2023-03-05T12:41:59.134Z,73.69
2023-03-05T12:47:19.136Z,73.27
2023-03-05T12:52:26.412Z,71.06
2023-03-05T12:57:29.983Z,71.84
2023-03-05T13:02:36.647Z,71.02
2023-03-05T13:07:38.520Z,69.60
2023-03-05T13:12:40.449Z,69.70
2023-03-05T13:17:53.009Z,66.43
2023-03-05T13:23:04.903Z,65.37
2023-03-05T13:28:13.014Z,65.10
2023-03-05T13:33:20.218Z,65.76
2023-03-05T13:38:36.623Z,66.73
2023-03-05T13:43:54.724Z,66.96
2023-03-05T13:48:58.367Z,65.62
2023-03-05T13:54:00.131Z,65.13
2023-03-05T13:59:01.965Z,65.02
2023-03-05T14:04:08.255Z,64.79
2023-03-05T14:09:25.062Z,65.04
2023-03-05T14:14:27.911Z,64.66
2023-03-05T14:19:39.364Z,64.31
2023-03-05T14:24:51.868Z,64.70
2023-03-05T14:29:53.888Z,64.40
2023-03-05T14:34:59.421Z,65.08
2023-03-05T14:40:32.494Z,65.01
2023-03-05T14:45:37.397Z,65.20
2023-03-05T14:50:51.598Z,65.33
2023-03-05T14:55:57.690Z,65.75
2023-03-05T15:00:59.421Z,65.40
2023-03-05T15:06:01.687Z,65.94
2023-03-05T15:11:03.859Z,65.86
2023-03-05T15:16:06.919Z,66.09
2023-03-05T15:21:08.960Z,65.89
2023-03-05T15:26:14.091Z,66.80
2023-03-05T15:31:17.518Z,66.81
2023-03-05T15:36:19.145Z,66.96
2023-03-05T15:41:22.202Z,66.71
2023-03-05T15:46:23.995Z,66.77
2023-03-05T15:51:25.674Z,66.77
2023-03-05T15:56:27.509Z,66.77
2023-03-05T16:01:29.199Z,66.61
2023-03-05T16:06:31.939Z,66.38
2023-03-05T16:11:37.496Z,66.31
2023-03-05T16:16:39.483Z,66.15
2023-03-05T16:21:41.335Z,66.21
2023-03-05T16:26:43.218Z,66.39
2023-03-05T16:31:45.410Z,66.30
2023-03-05T16:36:50.786Z,66.55
2023-03-05T16:41:53.109Z,66.27
2023-03-05T16:46:56.320Z,66.29
2023-03-05T16:52:01.337Z,66.22
2023-03-05T16:57:09.292Z,66.54
2023-03-05T17:02:13.042Z,66.31
2023-03-05T17:07:14.742Z,66.51
2023-03-05T17:12:16.337Z,66.56
2023-03-05T17:17:18.054Z,66.76
2023-03-05T17:22:19.839Z,66.60
2023-03-05T17:27:23.360Z,66.59
2023-03-05T17:32:25.178Z,66.44
2023-03-05T17:37:27.468Z,66.65
2023-03-05T17:42:29.156Z,66.60
2023-03-05T17:47:33.074Z,67.11
2023-03-05T17:52:38.229Z,67.12
2023-03-05T17:57:41.509Z,67.07
2023-03-05T18:02:43.507Z,67.56
2023-03-05T18:07:45.484Z,67.64
2023-03-05T18:12:48.100Z,67.70
2023-03-05T18:17:50.370Z,67.92
2023-03-05T18:22:52.452Z,68.04
2023-03-05T18:27:54.194Z,68.00
2023-03-05T18:32:56.107Z,68.11
2023-03-05T18:37:57.796Z,68.35
2023-03-05T18:43:01.424Z,68.44
2023-03-05T18:48:03.579Z,68.42
2023-03-05T18:53:05.333Z,68.99
2023-03-05T18:58:07.062Z,69.23
2023-03-05T19:03:08.981Z,69.35
2023-03-05T19:08:11.249Z,69.47
2023-03-05T19:13:28.685Z,69.72
2023-03-05T19:18:33.713Z,69.79
2023-03-05T19:23:35.597Z,69.86
2023-03-05T19:28:37.234Z,69.92
2023-03-05T19:33:38.935Z,70.11
2023-03-05T19:38:40.828Z,70.33
2023-03-05T19:43:42.595Z,70.13
2023-03-05T19:48:44.490Z,70.40
2023-03-05T19:53:47.591Z,70.38
2023-03-05T19:58:49.321Z,70.60
2023-03-05T20:03:53.857Z,70.93
2023-03-05T20:08:56.686Z,70.48
2023-03-05T20:13:58.699Z,70.25
2023-03-05T20:19:02.956Z,70.78
2023-03-05T20:24:09.925Z,70.77
2023-03-05T20:29:15.437Z,71.17
2023-03-05T20:34:19.773Z,70.88
2023-03-05T20:39:21.530Z,71.35
2023-03-05T20:44:23.364Z,71.34
2023-03-05T20:49:25.341Z,71.62
2023-03-05T20:54:28.056Z,71.89
2023-03-05T20:59:29.757Z,72.01
2023-03-05T21:04:31.521Z,71.83
2023-03-05T21:09:33.257Z,71.91
2023-03-05T21:14:37.933Z,72.16
2023-03-05T21:19:39.888Z,72.21
2023-03-05T21:25:01.967Z,72.30
2023-03-05T21:30:04.431Z,71.84
2023-03-05T21:35:06.674Z,71.96
2023-03-05T21:40:17.688Z,72.00
2023-03-05T21:45:22.838Z,71.95
2023-03-05T21:50:25.879Z,71.83
2023-03-05T21:55:32.962Z,71.89
2023-03-05T22:00:34.720Z,71.33
2023-03-05T22:05:36.512Z,71.08
2023-03-05T22:10:40.046Z,71.14
2023-03-05T22:15:46.145Z,71.33
2023-03-05T22:20:48.226Z,71.04
2023-03-05T22:25:57.130Z,71.09
2023-03-05T22:30:59.095Z,71.05
2023-03-05T22:36:07.519Z,70.80
2023-03-05T22:41:11.493Z,70.67
2023-03-05T22:46:19.749Z,70.87
2023-03-05T22:51:21.508Z,70.56
2023-03-05T22:56:23.365Z,70.79
2023-03-05T23:01:26.458Z,71.06
2023-03-05T23:06:28.155Z,71.01
2023-03-05T23:11:30.100Z,71.00
2023-03-05T23:16:31.843Z,70.75
2023-03-05T23:21:33.563Z,70.82
2023-03-05T23:26:35.288Z,70.47
2023-03-05T23:31:37.041Z,70.71
2023-03-05T23:36:39.022Z,70.83
2023-03-05T23:41:40.724Z,71.53
2023-03-05T23:46:42.396Z,71.93
2023-03-05T23:51:44.089Z,71.95
2023-03-05T23:56:45.845Z,72.38
